This is the latest recevied weather packets stored in our database for station/object KC3DGM. If no packets are shown the sender has not sent any weather packets the latest 10 day(s).
| Time | Temp. | Humidity | Pressure | Rain* | Wind** | Luminosity | Snow |
|---|---|---|---|---|---|---|---|
| 1778109105 | 8.89° C | 62% | 984.3 hPa | 0 mm | - | 11 W/m² | - |
| 1778108801 | 8.89° C | 60% | 984.4 hPa | 0 mm | - | 15 W/m² | - |
| 1778108498 | 8.89° C | 60% | 984.2 hPa | 0 mm | - | 18 W/m² | - |
| 1778108195 | 9.44° C | 60% | 984.5 hPa | 0 mm | - | 20 W/m² | - |
| 1778107892 | 9.44° C | 60% | 984.3 hPa | 0 mm | - | 27 W/m² | - |
| 1778107588 | 9.44° C | 58% | 984 hPa | 0 mm | - | 32 W/m² | - |
| 1778107285 | 9.44° C | 58% | 984.2 hPa | 0 mm | - | 29 W/m² | - |
| 1778106981 | 9.44° C | 59% | 984.2 hPa | 0 mm | - | 26 W/m² | - |
| 1778106677 | 9.44° C | 58% | 984 hPa | 0 mm | - | 25 W/m² | - |
| 1778106374 | 10° C | 58% | 983.9 hPa | 0 mm | - | 31 W/m² | - |
| 1778106070 | 10° C | 56% | 983.6 hPa | 0 mm | - | 24 W/m² | - |
| 1778105768 | 10° C | 56% | 983.7 hPa | 0 mm | - | 29 W/m² | - |
| 1778105466 | 10° C | 54% | 983.3 hPa | 0 mm | - | 31 W/m² | - |
| 1778105162 | 10° C | 58% | 983.5 hPa | 0 mm | - | 27 W/m² | - |
| 1778104857 | 10.56° C | 57% | 983.5 hPa | 0 mm | - | 30 W/m² | - |
| 1778104554 | 10.56° C | 57% | 983.7 hPa | 0 mm | - | 45 W/m² | - |
| 1778104250 | 10.56° C | 59% | 983.6 hPa | 0 mm | - | 57 W/m² | - |
| 1778103947 | 10.56° C | 58% | 983.5 hPa | 0 mm | - | 64 W/m² | - |
| 1778103644 | 10.56° C | 55% | 983.2 hPa | 0 mm | - | 69 W/m² | - |
| 1778103342 | 10.56° C | 56% | 983.3 hPa | 0 mm | - | 69 W/m² | - |
| 1778103040 | 10.56° C | 55% | 983.2 hPa | 0 mm | - | 71 W/m² | - |
| 1778102736 | 10.56° C | 55% | 983.1 hPa | 0 mm | - | 62 W/m² | - |
| 1778102431 | 10.56° C | 55% | 982.8 hPa | 0 mm | - | 110 W/m² | - |
| 1778102127 | 10.56° C | 58% | 983.2 hPa | 0 mm | - | 65 W/m² | - |
| 1778101825 | 10.56° C | 56% | 983 hPa | 0 mm | - | 57 W/m² | - |
* Rain latest hour (hover to see other rain measurements)
** Current wind speed in m/s (hover to see current wind gust speed)